Time;durP1;ratioP1;P1;durP2;ratioP2;P2;SDS_P1;SDS_P2;PMS_P1;PMS_P2;Temp;Humidity;BMP_temperature;BMP_pressure;BME280_temperature;BME280_humidity;BME280_pressure;Samples;Min_cycle;Max_cycle;Signal;HPM_P1;HPM_P2
2022/03/08 00:00:30;;;;;;;5.80;2.55;;;;;;;;;;4994443;28;20038;-79
2022/03/08 00:02:55;;;;;;;5.88;3.15;;;;;;;;;;5042410;28;20041;-79
2022/03/08 00:05:22;;;;;;;8.20;3.13;;;;;;;;;;5010339;28;20057;-79
2022/03/08 00:07:50;;;;;;;5.20;2.80;;;;;;;;;;4999319;28;20473;-79
2022/03/08 00:10:16;;;;;;;9.90;3.72;;;;;;;;;;5004072;28;20036;-80
2022/03/08 00:12:46;;;;;;;6.53;3.25;;;;;;;;;;5011480;28;20508;-80
2022/03/08 00:15:16;;;;;;;7.32;3.33;;;;;;;;;;5011344;28;20033;-80
2022/03/08 00:17:41;;;;;;;6.95;3.08;;;;;;;;;;5005872;28;20109;-80
2022/03/08 00:20:08;;;;;;;6.25;3.72;;;;;;;;;;5035803;28;20978;-80
2022/03/08 00:22:37;;;;;;;7.43;3.75;;;;;;;;;;5044650;28;20076;-80
2022/03/08 00:25:03;;;;;;;6.70;3.67;;;;;;;;;;5004204;28;20099;-79
2022/03/08 00:27:31;;;;;;;8.38;3.63;;;;;;;;;;5011578;28;20117;-80
2022/03/08 00:29:57;;;;;;;7.40;3.55;;;;;;;;;;5010618;28;20520;-80
2022/03/08 00:32:22;;;;;;;6.97;3.55;;;;;;;;;;5025307;28;20125;-80
2022/03/08 00:34:48;;;;;;;7.55;3.60;;;;;;;;;;5004301;28;20038;-80
2022/03/08 00:37:13;;;;;;;7.03;3.65;;;;;;;;;;5010456;28;20037;-80
2022/03/08 00:39:38;;;;;;;6.93;3.63;;;;;;;;;;5010123;28;20508;-80
2022/03/08 00:42:04;;;;;;;7.47;3.75;;;;;;;;;;4992823;28;20117;-80
2022/03/08 00:44:29;;;;;;;7.50;4.28;;;;;;;;;;5011105;28;20041;-78
2022/03/08 00:46:55;;;;;;;9.45;4.15;;;;;;;;;;5010055;28;20057;-80
2022/03/08 00:49:20;;;;;;;7.35;4.00;;;;;;;;;;5008487;28;20141;-80
2022/03/08 00:51:45;;;;;;;7.72;4.38;;;;;;;;;;4997394;28;20432;-80
2022/03/08 00:54:11;;;;;;;9.05;4.38;;;;;;;;;;5010004;28;20041;-80
2022/03/08 00:56:36;;;;;;;7.43;4.43;;;;;;;;;;5000329;28;20079;-80
2022/03/08 00:59:02;;;;;;;7.28;4.30;;;;;;;;;;5008777;28;20703;-78
2022/03/08 01:01:27;;;;;;;7.45;4.43;;;;;;;;;;5018528;28;20060;-79
2022/03/08 01:03:52;;;;;;;8.48;4.60;;;;;;;;;;5028593;28;20062;-79
2022/03/08 01:06:17;;;;;;;11.27;4.80;;;;;;;;;;5019811;28;20041;-79
2022/03/08 01:08:43;;;;;;;8.55;4.82;;;;;;;;;;5011731;28;20508;-79
2022/03/08 01:11:08;;;;;;;7.53;4.97;;;;;;;;;;5019634;28;20087;-79
2022/03/08 01:13:33;;;;;;;12.25;5.35;;;;;;;;;;5008071;28;20495;-79
2022/03/08 01:15:59;;;;;;;9.05;4.80;;;;;;;;;;5039569;28;20038;-79
2022/03/08 01:18:24;;;;;;;10.43;5.03;;;;;;;;;;5011935;28;20037;-80
2022/03/08 01:20:49;;;;;;;10.73;4.88;;;;;;;;;;5012272;28;20048;-79
2022/03/08 01:23:15;;;;;;;8.32;5.05;;;;;;;;;;4996243;28;20038;-80
2022/03/08 01:25:40;;;;;;;8.57;5.07;;;;;;;;;;4994956;28;20053;-80
2022/03/08 01:28:07;;;;;;;11.95;4.95;;;;;;;;;;5018062;28;20453;-79
2022/03/08 01:30:33;;;;;;;8.93;4.90;;;;;;;;;;4998073;28;20075;-79
2022/03/08 01:32:58;;;;;;;9.55;4.95;;;;;;;;;;4997192;28;20041;-79
2022/03/08 01:35:24;;;;;;;11.23;4.80;;;;;;;;;;5010218;28;20492;-80
2022/03/08 01:37:49;;;;;;;9.88;4.90;;;;;;;;;;5008426;28;20041;-79
2022/03/08 01:40:15;;;;;;;11.02;5.00;;;;;;;;;;4996228;28;20033;-79
2022/03/08 01:42:48;;;;;;;8.70;4.82;;;;;;;;;;5012132;28;20033;-79
2022/03/08 01:45:16;;;;;;;10.30;4.82;;;;;;;;;;5012435;28;20513;-80
2022/03/08 01:47:41;;;;;;;;;;;;;;;;;;4998215;28;20501;-80
2022/03/08 01:50:07;;;;;;;7.93;4.60;;;;;;;;;;4995468;28;19918;-80
2022/03/08 01:52:33;;;;;;;13.60;4.90;;;;;;;;;;5014043;28;20432;-79
2022/03/08 01:54:58;;;;;;;7.72;4.95;;;;;;;;;;5026782;28;20046;-79
2022/03/08 01:57:25;;;;;;;10.07;5.57;;;;;;;;;;5008952;28;20096;-80
2022/03/08 01:59:51;;;;;;;8.45;4.88;;;;;;;;;;5009382;28;20034;-80
2022/03/08 02:02:17;;;;;;;10.98;5.30;;;;;;;;;;5009316;28;20069;-79
2022/03/08 02:04:42;;;;;;;10.38;4.63;;;;;;;;;;4997893;28;20205;-79
2022/03/08 02:07:08;;;;;;;8.95;5.13;;;;;;;;;;5019171;28;20034;-79
2022/03/08 02:09:33;;;;;;;7.88;4.70;;;;;;;;;;4995438;28;20042;-79
2022/03/08 02:11:58;;;;;;;9.73;5.15;;;;;;;;;;5023966;28;20528;-79
2022/03/08 02:14:26;;;;;;;9.35;4.65;;;;;;;;;;4993261;28;20119;-79
2022/03/08 02:16:51;;;;;;;9.05;4.88;;;;;;;;;;5009287;28;20121;-79
2022/03/08 02:19:16;;;;;;;11.23;4.75;;;;;;;;;;4991344;28;20076;-79
2022/03/08 02:21:42;;;;;;;7.47;4.13;;;;;;;;;;5008070;28;20417;-79
2022/03/08 02:24:08;;;;;;;8.65;5.18;;;;;;;;;;5009008;28;20541;-79
2022/03/08 02:26:33;;;;;;;9.52;5.30;;;;;;;;;;5007818;28;20084;-78
2022/03/08 02:29:03;;;;;;;8.88;4.68;;;;;;;;;;5001597;28;20048;-83
2022/03/08 02:31:29;;;;;;;8.38;4.53;;;;;;;;;;5027915;28;20057;-78
2022/03/08 02:33:54;;;;;;;8.23;4.13;;;;;;;;;;4995810;28;20372;-80
2022/03/08 02:36:20;;;;;;;8.90;4.85;;;;;;;;;;5024217;28;20037;-80
2022/03/08 02:38:45;;;;;;;8.95;4.70;;;;;;;;;;5041324;28;20041;-79
2022/03/08 02:41:11;;;;;;;7.38;4.65;;;;;;;;;;4998439;28;20026;-79
2022/03/08 02:43:36;;;;;;;8.00;4.50;;;;;;;;;;5010059;28;20044;-79
2022/03/08 02:46:01;;;;;;;6.95;4.57;;;;;;;;;;5006610;28;20397;-79
2022/03/08 02:48:28;;;;;;;8.65;4.53;;;;;;;;;;5009078;28;20088;-80
2022/03/08 02:50:53;;;;;;;9.55;4.93;;;;;;;;;;4994290;28;20087;-79
2022/03/08 02:53:19;;;;;;;8.00;4.68;;;;;;;;;;5009894;28;20037;-79
2022/03/08 02:55:44;;;;;;;8.82;4.40;;;;;;;;;;5006773;28;20044;-79
2022/03/08 02:58:09;;;;;;;9.00;4.82;;;;;;;;;;5007816;28;20056;-80
2022/03/08 03:00:36;;;;;;;8.45;4.75;;;;;;;;;;5008609;28;20042;-81
2022/03/08 03:03:02;;;;;;;8.55;4.85;;;;;;;;;;4992314;28;20060;-79
2022/03/08 03:05:27;;;;;;;9.38;4.60;;;;;;;;;;5007630;28;20034;-79
2022/03/08 03:07:52;;;;;;;11.80;4.70;;;;;;;;;;5023750;28;20103;-79
2022/03/08 03:10:19;;;;;;;8.48;5.00;;;;;;;;;;5040150;28;20460;-79
2022/03/08 03:12:45;;;;;;;9.43;5.00;;;;;;;;;;5008281;28;20033;-80
2022/03/08 03:15:12;;;;;;;8.80;4.90;;;;;;;;;;5021750;28;20289;-79
2022/03/08 03:17:37;;;;;;;9.43;5.22;;;;;;;;;;4994125;28;20473;-79
2022/03/08 03:20:07;;;;;;;9.13;5.05;;;;;;;;;;5027452;28;20026;-80
2022/03/08 03:22:33;;;;;;;7.90;4.63;;;;;;;;;;4991744;28;20404;-79
2022/03/08 03:24:58;;;;;;;9.15;4.57;;;;;;;;;;4988226;28;20037;-80
2022/03/08 03:27:24;;;;;;;8.95;4.72;;;;;;;;;;4999889;28;20517;-79
2022/03/08 03:29:49;;;;;;;8.35;4.72;;;;;;;;;;5007602;28;20041;-79
2022/03/08 03:32:14;;;;;;;9.80;4.70;;;;;;;;;;5005630;28;20168;-81
2022/03/08 03:34:40;;;;;;;10.40;5.18;;;;;;;;;;5006351;28;20172;-79
2022/03/08 03:37:05;;;;;;;11.95;5.07;;;;;;;;;;5012094;28;20096;-79
2022/03/08 03:39:32;;;;;;;9.90;5.03;;;;;;;;;;5030640;28;20058;-79
2022/03/08 03:41:57;;;;;;;8.18;4.93;;;;;;;;;;5011480;28;20117;-79
2022/03/08 03:44:23;;;;;;;9.88;4.57;;;;;;;;;;5030005;28;20060;-80
2022/03/08 03:46:48;;;;;;;8.35;4.60;;;;;;;;;;5001152;28;20044;-79
2022/03/08 03:49:14;;;;;;;10.05;5.25;;;;;;;;;;5012704;28;20037;-80
2022/03/08 03:51:39;;;;;;;8.73;4.75;;;;;;;;;;5003213;28;20042;-80
2022/03/08 03:54:07;;;;;;;10.77;4.93;;;;;;;;;;5013863;28;20030;-80
2022/03/08 03:56:33;;;;;;;8.60;4.70;;;;;;;;;;4998370;28;20115;-79
2022/03/08 03:58:58;;;;;;;11.82;4.78;;;;;;;;;;5011907;28;20050;-80
2022/03/08 04:01:23;;;;;;;10.73;5.10;;;;;;;;;;5028956;28;20037;-80
2022/03/08 04:03:48;;;;;;;7.97;4.82;;;;;;;;;;5011273;28;20092;-80
2022/03/08 04:06:14;;;;;;;9.07;5.03;;;;;;;;;;5010974;28;20044;-79
2022/03/08 04:08:39;;;;;;;8.90;4.97;;;;;;;;;;5010995;28;20072;-80
2022/03/08 04:11:04;;;;;;;8.43;4.80;;;;;;;;;;5013038;28;20414;-80
2022/03/08 04:13:30;;;;;;;9.23;5.22;;;;;;;;;;4998697;28;20087;-80
2022/03/08 04:15:55;;;;;;;10.57;5.22;;;;;;;;;;5031827;28;20128;-79
2022/03/08 04:18:20;;;;;;;9.57;5.55;;;;;;;;;;5010890;28;20063;-80
2022/03/08 04:20:49;;;;;;;8.75;4.93;;;;;;;;;;5029948;28;20461;-82
2022/03/08 04:23:14;;;;;;;9.68;5.47;;;;;;;;;;4998120;28;20078;-81
2022/03/08 04:25:39;;;;;;;9.85;5.10;;;;;;;;;;5004425;28;20164;-81
2022/03/08 04:28:05;;;;;;;8.88;5.30;;;;;;;;;;5004907;28;20040;-81
2022/03/08 04:30:31;;;;;;;10.75;5.38;;;;;;;;;;5009564;28;20088;-82
2022/03/08 04:32:56;;;;;;;9.20;5.28;;;;;;;;;;5015333;28;20026;-81
2022/03/08 04:35:22;;;;;;;13.55;6.00;;;;;;;;;;5003958;28;20073;-81
2022/03/08 04:37:47;;;;;;;9.30;5.20;;;;;;;;;;5006047;28;20041;-81
2022/03/08 04:40:13;;;;;;;9.90;5.57;;;;;;;;;;5009622;28;20525;-82
2022/03/08 04:42:39;;;;;;;11.63;5.88;;;;;;;;;;4998212;28;20508;-81
2022/03/08 04:45:06;;;;;;;10.20;6.03;;;;;;;;;;5001237;28;20444;-81
2022/03/08 04:47:32;;;;;;;10.18;5.50;;;;;;;;;;4998995;28;20509;-81
2022/03/08 04:49:57;;;;;;;9.73;5.60;;;;;;;;;;5010532;28;20041;-82
2022/03/08 04:52:22;;;;;;;11.60;5.60;;;;;;;;;;5031047;28;20041;-81
2022/03/08 04:54:48;;;;;;;12.02;5.95;;;;;;;;;;5010575;28;20045;-81
2022/03/08 04:57:13;;;;;;;9.98;5.55;;;;;;;;;;5036658;28;20132;-82
2022/03/08 04:59:38;;;;;;;14.13;5.70;;;;;;;;;;5009321;28;20507;-81
2022/03/08 05:02:04;;;;;;;11.95;6.07;;;;;;;;;;5002521;28;20128;-82
2022/03/08 05:04:29;;;;;;;9.95;6.03;;;;;;;;;;4994457;28;20045;-81
2022/03/08 05:06:55;;;;;;;12.52;5.97;;;;;;;;;;5009106;28;20123;-81
2022/03/08 05:09:20;;;;;;;9.60;5.70;;;;;;;;;;4997414;28;20042;-81
2022/03/08 05:11:46;;;;;;;8.60;6.07;;;;;;;;;;5030011;28;20030;-81
2022/03/08 05:14:14;;;;;;;9.45;5.38;;;;;;;;;;4997299;28;20061;-81
2022/03/08 05:16:39;;;;;;;10.18;5.90;;;;;;;;;;5008484;28;20064;-81
2022/03/08 05:19:04;;;;;;;10.80;6.05;;;;;;;;;;4999116;28;20034;-81
2022/03/08 05:21:29;;;;;;;11.38;5.93;;;;;;;;;;4985178;28;20048;-81
2022/03/08 05:23:55;;;;;;;13.23;6.05;;;;;;;;;;4991320;28;20096;-81
2022/03/08 05:26:20;;;;;;;10.15;5.88;;;;;;;;;;5002190;28;20036;-81
2022/03/08 05:28:46;;;;;;;8.63;6.13;;;;;;;;;;5043656;28;20784;-81
2022/03/08 05:31:12;;;;;;;9.48;5.53;;;;;;;;;;5025499;28;20034;-81
2022/03/08 05:33:37;;;;;;;10.93;5.85;;;;;;;;;;5029713;28;20029;-81
2022/03/08 05:36:03;;;;;;;9.95;5.63;;;;;;;;;;5009386;28;20033;-81
2022/03/08 05:38:28;;;;;;;9.90;6.22;;;;;;;;;;5017411;28;20100;-81
2022/03/08 05:40:54;;;;;;;12.00;6.45;;;;;;;;;;5003171;28;20029;-81
2022/03/08 05:43:19;;;;;;;12.32;6.18;;;;;;;;;;4996988;28;20133;-82
2022/03/08 05:45:45;;;;;;;11.27;6.60;;;;;;;;;;5028330;28;20033;-81
2022/03/08 05:48:10;;;;;;;11.40;6.40;;;;;;;;;;5008433;28;20053;-81
2022/03/08 05:50:36;;;;;;;11.45;6.53;;;;;;;;;;5007797;28;20161;-81
2022/03/08 05:53:02;;;;;;;12.00;6.75;;;;;;;;;;5008697;28;20536;-81
2022/03/08 05:55:27;;;;;;;11.15;6.70;;;;;;;;;;5012331;28;20042;-81
2022/03/08 05:57:53;;;;;;;10.98;6.30;;;;;;;;;;4996353;28;20022;-81
2022/03/08 06:00:18;;;;;;;12.75;5.97;;;;;;;;;;5007867;28;20509;-81
2022/03/08 06:02:43;;;;;;;11.68;6.38;;;;;;;;;;5008908;28;20073;-81
2022/03/08 06:05:09;;;;;;;10.98;6.20;;;;;;;;;;4996172;28;20051;-81
2022/03/08 06:07:34;;;;;;;11.15;6.10;;;;;;;;;;4996953;28;20037;-81
2022/03/08 06:09:59;;;;;;;11.60;6.80;;;;;;;;;;4996882;28;20132;-82
2022/03/08 06:12:25;;;;;;;9.80;6.13;;;;;;;;;;5001698;28;20115;-81
2022/03/08 06:14:50;;;;;;;12.30;6.18;;;;;;;;;;4997454;28;20045;-81
2022/03/08 06:17:16;;;;;;;11.05;6.00;;;;;;;;;;5042455;28;20034;-81
2022/03/08 06:19:41;;;;;;;11.10;6.88;;;;;;;;;;5000874;28;20041;-81
2022/03/08 06:22:06;;;;;;;12.43;6.82;;;;;;;;;;5010399;28;20037;-81
2022/03/08 06:24:32;;;;;;;12.15;6.72;;;;;;;;;;5002407;28;20072;-81
2022/03/08 06:26:57;;;;;;;12.70;6.80;;;;;;;;;;5001221;28;20064;-81
2022/03/08 06:29:23;;;;;;;11.70;6.40;;;;;;;;;;5007736;28;20389;-81
2022/03/08 06:31:48;;;;;;;11.02;6.72;;;;;;;;;;5002178;28;20549;-82
2022/03/08 06:34:14;;;;;;;10.68;6.65;;;;;;;;;;5027543;28;20036;-82
2022/03/08 06:36:41;;;;;;;12.25;6.75;;;;;;;;;;5028822;28;20040;-81
2022/03/08 06:39:06;;;;;;;11.13;6.13;;;;;;;;;;5040918;28;20029;-83
2022/03/08 06:41:32;;;;;;;10.43;6.45;;;;;;;;;;5008567;28;20046;-82
2022/03/08 06:43:59;;;;;;;11.10;6.57;;;;;;;;;;5007901;28;20037;-82
2022/03/08 06:46:24;;;;;;;13.30;6.22;;;;;;;;;;4998758;28;20041;-82
2022/03/08 06:48:49;;;;;;;11.32;6.78;;;;;;;;;;5025085;28;20697;-82
2022/03/08 06:51:15;;;;;;;10.55;7.13;;;;;;;;;;5001412;28;20048;-82
2022/03/08 06:53:40;;;;;;;14.63;7.38;;;;;;;;;;5018485;28;20041;-82
2022/03/08 06:56:05;;;;;;;11.60;7.45;;;;;;;;;;5009011;28;20310;-81
2022/03/08 06:58:31;;;;;;;13.00;7.93;;;;;;;;;;5008566;28;20037;-81
2022/03/08 07:00:56;;;;;;;13.43;7.55;;;;;;;;;;5027050;28;20175;-81
2022/03/08 07:03:22;;;;;;;14.63;7.80;;;;;;;;;;5013624;28;20049;-82
2022/03/08 07:05:47;;;;;;;13.25;7.97;;;;;;;;;;4995379;28;20184;-82
2022/03/08 07:08:12;;;;;;;12.85;8.20;;;;;;;;;;5025099;28;20053;-82
2022/03/08 07:10:38;;;;;;;12.38;7.55;;;;;;;;;;5000542;28;20093;-82
2022/03/08 07:13:03;;;;;;;14.75;7.82;;;;;;;;;;5023960;28;20117;-81
2022/03/08 07:15:29;;;;;;;14.18;7.68;;;;;;;;;;5007065;28;20072;-82
2022/03/08 07:17:54;;;;;;;13.80;8.13;;;;;;;;;;5024254;28;20603;-82
2022/03/08 07:20:19;;;;;;;12.90;7.95;;;;;;;;;;4993898;28;20040;-82
2022/03/08 07:22:45;;;;;;;13.00;7.40;;;;;;;;;;5008916;28;20037;-81
2022/03/08 07:25:11;;;;;;;13.10;8.10;;;;;;;;;;5000420;28;20049;-81
2022/03/08 07:27:36;;;;;;;11.27;7.40;;;;;;;;;;5030037;28;20040;-81
2022/03/08 07:30:07;;;;;;;13.18;7.97;;;;;;;;;;5001527;28;20467;-81
2022/03/08 07:32:32;;;;;;;13.05;8.48;;;;;;;;;;5014802;28;20152;-81
2022/03/08 07:34:58;;;;;;;13.52;8.10;;;;;;;;;;5008060;28;20052;-80
2022/03/08 07:37:24;;;;;;;12.95;7.57;;;;;;;;;;4994765;28;20059;-82
2022/03/08 07:39:49;;;;;;;13.35;8.25;;;;;;;;;;5000499;28;20041;-82
2022/03/08 07:42:14;;;;;;;12.85;7.90;;;;;;;;;;5005044;28;20853;-81
2022/03/08 07:44:40;;;;;;;12.27;8.23;;;;;;;;;;5027054;28;20051;-82
2022/03/08 07:47:06;;;;;;;12.70;8.02;;;;;;;;;;5000100;28;20034;-82
2022/03/08 07:49:31;;;;;;;14.00;7.43;;;;;;;;;;5007875;28;20045;-82
2022/03/08 07:51:56;;;;;;;14.70;7.18;;;;;;;;;;5023781;28;20041;-82
2022/03/08 07:54:22;;;;;;;11.13;6.57;;;;;;;;;;5008312;28;20037;-82
2022/03/08 07:56:47;;;;;;;11.85;6.28;;;;;;;;;;5025201;28;20041;-81
2022/03/08 07:59:13;;;;;;;11.52;7.22;;;;;;;;;;4998241;28;20511;-82
2022/03/08 08:01:38;;;;;;;10.73;6.07;;;;;;;;;;5000122;28;20062;-81
2022/03/08 08:04:06;;;;;;;9.93;6.40;;;;;;;;;;4992783;28;20046;-81
2022/03/08 08:06:31;;;;;;;;;;;;;;;;;;5025226;28;20038;-82
2022/03/08 08:08:57;;;;;;;8.30;5.70;;;;;;;;;;5008455;28;19928;-83
2022/03/08 08:11:22;;;;;;;8.55;5.65;;;;;;;;;;4986976;28;20281;-82
2022/03/08 08:13:48;;;;;;;8.80;5.22;;;;;;;;;;4991059;28;20095;-83
2022/03/08 08:16:16;;;;;;;8.73;5.20;;;;;;;;;;5009080;28;20099;-82
2022/03/08 08:18:41;;;;;;;8.32;5.13;;;;;;;;;;5042606;28;20053;-82
2022/03/08 08:21:07;;;;;;;7.40;3.95;;;;;;;;;;5008835;28;20045;-83
2022/03/08 08:23:32;;;;;;;8.48;3.53;;;;;;;;;;4997385;28;20061;-84
2022/03/08 08:25:58;;;;;;;8.88;3.75;;;;;;;;;;5016980;28;20060;-81
2022/03/08 08:28:23;;;;;;;5.63;3.28;;;;;;;;;;5002800;28;20080;-82
2022/03/08 08:30:49;;;;;;;6.43;3.90;;;;;;;;;;5020219;28;20067;-82
2022/03/08 08:33:14;;;;;;;7.93;3.70;;;;;;;;;;5032634;28;20033;-82
2022/03/08 08:35:40;;;;;;;6.35;3.50;;;;;;;;;;4986031;28;20536;-83
2022/03/08 08:38:05;;;;;;;6.72;3.75;;;;;;;;;;5000461;28;20037;-83
2022/03/08 08:40:31;;;;;;;5.20;3.00;;;;;;;;;;5002078;28;20038;-82
2022/03/08 08:42:57;;;;;;;7.53;3.40;;;;;;;;;;5012403;28;20088;-84
2022/03/08 08:45:22;;;;;;;6.97;3.30;;;;;;;;;;5026380;28;20040;-83
2022/03/08 08:47:48;;;;;;;7.22;3.35;;;;;;;;;;5031296;28;20463;-82
2022/03/08 08:50:13;;;;;;;7.93;3.03;;;;;;;;;;5010025;28;20061;-82
2022/03/08 08:52:39;;;;;;;7.00;3.20;;;;;;;;;;4998261;28;20096;-83
2022/03/08 08:55:05;;;;;;;6.82;3.35;;;;;;;;;;5042294;28;20044;-84
2022/03/08 08:57:30;;;;;;;6.47;3.38;;;;;;;;;;4994562;28;20052;-83
2022/03/08 08:59:55;;;;;;;6.65;3.38;;;;;;;;;;4997555;28;20037;-83
2022/03/08 09:02:21;;;;;;;6.45;3.38;;;;;;;;;;5043784;28;20052;-84
2022/03/08 09:04:46;;;;;;;8.52;3.35;;;;;;;;;;4998904;28;20104;-83
2022/03/08 09:07:11;;;;;;;5.97;3.10;;;;;;;;;;5009332;28;20164;-83
2022/03/08 09:09:36;;;;;;;6.53;3.20;;;;;;;;;;4996107;28;20136;-84
2022/03/08 09:12:02;;;;;;;5.78;2.95;;;;;;;;;;5322001;23;20349;-82
2022/03/08 09:14:28;;;;;;;6.05;2.92;;;;;;;;;;5001418;28;20565;-82
2022/03/08 09:16:53;;;;;;;5.28;2.80;;;;;;;;;;5008661;28;20033;-83
2022/03/08 09:19:18;;;;;;;7.20;3.20;;;;;;;;;;4995032;28;20136;-82
2022/03/08 09:21:44;;;;;;;5.70;3.25;;;;;;;;;;4994684;28;20742;-81
2022/03/08 09:24:09;;;;;;;6.80;3.55;;;;;;;;;;4999824;28;20034;-82
2022/03/08 09:26:35;;;;;;;6.47;3.08;;;;;;;;;;5008551;28;20100;-81
2022/03/08 09:29:00;;;;;;;7.20;3.00;;;;;;;;;;5001884;28;20096;-81
2022/03/08 09:31:25;;;;;;;8.05;3.08;;;;;;;;;;4994305;28;20038;-80
2022/03/08 09:33:51;;;;;;;5.75;2.83;;;;;;;;;;5009563;28;20064;-81
2022/03/08 09:36:19;;;;;;;6.47;2.78;;;;;;;;;;5009423;28;20442;-80
2022/03/08 09:38:44;;;;;;;5.85;2.40;;;;;;;;;;4996818;28;20044;-80
2022/03/08 09:41:11;;;;;;;6.03;3.05;;;;;;;;;;5009033;28;20034;-81
2022/03/08 09:43:37;;;;;;;6.20;2.72;;;;;;;;;;4997033;28;20037;-80
2022/03/08 09:46:04;;;;;;;5.25;2.70;;;;;;;;;;5011621;28;20649;-80
2022/03/08 09:48:29;;;;;;;6.38;3.10;;;;;;;;;;5009545;28;20042;-80
2022/03/08 09:50:58;;;;;;;5.07;2.90;;;;;;;;;;4999357;28;20057;-82
2022/03/08 09:53:24;;;;;;;4.72;2.72;;;;;;;;;;5009437;28;20038;-83
2022/03/08 09:55:49;;;;;;;7.90;3.08;;;;;;;;;;5000507;28;20037;-82
2022/03/08 09:58:17;;;;;;;5.88;2.92;;;;;;;;;;5001342;28;20045;-81
2022/03/08 10:00:43;;;;;;;5.15;2.67;;;;;;;;;;5009423;28;20041;-81
2022/03/08 10:03:11;;;;;;;5.57;2.92;;;;;;;;;;5011411;28;20402;-82
2022/03/08 10:05:40;;;;;;;6.57;3.05;;;;;;;;;;4998915;28;20052;-81
2022/03/08 10:08:19;;;;;;;5.95;2.53;;;;;;;;;;4992856;28;20034;-83
2022/03/08 10:10:58;;;;;;;5.68;2.60;;;;;;;;;;5003000;28;20036;-81
2022/03/08 10:13:31;;;;;;;4.50;2.70;;;;;;;;;;5008280;28;20404;-82
2022/03/08 10:16:07;;;;;;;7.50;2.90;;;;;;;;;;5004061;28;20041;-81
2022/03/08 10:18:41;;;;;;;5.07;2.75;;;;;;;;;;4992403;28;20057;-82
2022/03/08 10:21:33;;;;;;;5.10;2.70;;;;;;;;;;4987895;28;20066;-79
2022/03/08 10:24:15;;;;;;;6.55;3.08;;;;;;;;;;4977031;28;20079;-80
2022/03/08 10:26:52;;;;;;;6.18;2.70;;;;;;;;;;4986724;28;20046;-79
2022/03/08 10:29:25;;;;;;;8.25;2.65;;;;;;;;;;4982526;28;20048;-79
2022/03/08 10:32:09;;;;;;;5.68;2.90;;;;;;;;;;4998434;28;20384;-79
2022/03/08 10:34:36;;;;;;;6.43;2.60;;;;;;;;;;4983979;28;20045;-79
2022/03/08 10:37:07;;;;;;;6.13;2.88;;;;;;;;;;4990126;28;20041;-79
2022/03/08 10:39:33;;;;;;;5.15;2.58;;;;;;;;;;5007657;28;20104;-79
2022/03/08 10:42:02;;;;;;;7.32;2.92;;;;;;;;;;4992041;28;20069;-79
2022/03/08 10:44:39;;;;;;;4.80;2.78;;;;;;;;;;4987603;28;20080;-78
2022/03/08 10:47:10;;;;;;;7.25;2.75;;;;;;;;;;4988518;28;20033;-80
2022/03/08 10:49:47;;;;;;;6.53;2.60;;;;;;;;;;4988468;28;20045;-80
2022/03/08 10:52:12;;;;;;;5.90;2.65;;;;;;;;;;4987209;28;20393;-80
2022/03/08 10:54:38;;;;;;;5.57;2.55;;;;;;;;;;4988648;28;20045;-81
2022/03/08 10:57:08;;;;;;;5.32;2.78;;;;;;;;;;4987051;28;20049;-79
2022/03/08 10:59:34;;;;;;;5.38;2.50;;;;;;;;;;4987198;28;20185;-79
2022/03/08 11:02:18;;;;;;;4.25;2.20;;;;;;;;;;4988983;28;20117;-81
2022/03/08 11:04:44;;;;;;;4.45;2.25;;;;;;;;;;4988720;28;20061;-81
2022/03/08 11:07:12;;;;;;;4.78;2.22;;;;;;;;;;4969919;28;20183;-81
2022/03/08 11:09:38;;;;;;;;;;;;;;;;;;5000933;28;20052;-81
2022/03/08 11:12:07;;;;;;;4.18;1.83;;;;;;;;;;4986438;28;19914;-81
2022/03/08 11:14:36;;;;;;;4.53;1.90;;;;;;;;;;4997388;28;20059;-81
2022/03/08 11:17:01;;;;;;;3.72;1.70;;;;;;;;;;4983131;28;20280;-80
2022/03/08 11:19:27;;;;;;;4.38;1.80;;;;;;;;;;4988744;28;20145;-79
2022/03/08 11:21:56;;;;;;;3.63;1.65;;;;;;;;;;5004442;28;20034;-81
2022/03/08 11:24:25;;;;;;;5.25;1.60;;;;;;;;;;4987236;28;20045;-82
2022/03/08 11:26:50;;;;;;;5.22;1.90;;;;;;;;;;4989770;28;20088;-81
2022/03/08 11:29:16;;;;;;;3.90;1.80;;;;;;;;;;4991169;28;20807;-82
2022/03/08 11:31:42;;;;;;;3.47;1.60;;;;;;;;;;4988395;28;20824;-82
2022/03/08 11:34:15;;;;;;;3.50;1.90;;;;;;;;;;4987944;28;20489;-82
2022/03/08 11:36:51;;;;;;;4.25;1.83;;;;;;;;;;4986781;28;20078;-82
2022/03/08 11:39:25;;;;;;;2.97;1.50;;;;;;;;;;4991163;28;20647;-82
2022/03/08 11:41:58;;;;;;;4.45;1.60;;;;;;;;;;4987491;28;20045;-83
2022/03/08 11:44:34;;;;;;;3.92;1.75;;;;;;;;;;4988928;28;20116;-83
2022/03/08 11:47:14;;;;;;;3.85;1.50;;;;;;;;;;4987989;28;20507;-82
2022/03/08 11:49:44;;;;;;;5.25;2.30;;;;;;;;;;4974990;28;20153;-84
2022/03/08 11:52:10;;;;;;;3.92;1.50;;;;;;;;;;5005597;28;20152;-82
2022/03/08 11:54:36;;;;;;;3.22;1.60;;;;;;;;;;5005475;28;20050;-83
2022/03/08 11:57:01;;;;;;;3.17;1.60;;;;;;;;;;4989007;28;20041;-82
2022/03/08 11:59:29;;;;;;;3.38;1.55;;;;;;;;;;4996272;28;20046;-79
2022/03/08 12:01:55;;;;;;;3.22;1.30;;;;;;;;;;5001402;28;20727;-80
2022/03/08 12:04:21;;;;;;;3.70;1.33;;;;;;;;;;4989717;28;20038;-78
2022/03/08 12:06:50;;;;;;;3.17;1.33;;;;;;;;;;4991507;28;21055;-78
2022/03/08 12:09:18;;;;;;;4.13;1.70;;;;;;;;;;4990611;28;20571;-79
2022/03/08 12:12:00;;;;;;;3.17;1.67;;;;;;;;;;4991446;28;20029;-77
2022/03/08 12:14:29;;;;;;;2.92;1.48;;;;;;;;;;4990052;28;20087;-76
2022/03/08 12:17:10;;;;;;;3.25;1.40;;;;;;;;;;5006529;28;20038;-75
2022/03/08 12:19:39;;;;;;;4.72;1.70;;;;;;;;;;5009919;28;20571;-74
2022/03/08 12:22:09;;;;;;;5.03;2.28;;;;;;;;;;5006023;28;20046;-75
2022/03/08 12:24:40;;;;;;;4.07;1.58;;;;;;;;;;5010696;28;20440;-75
2022/03/08 12:27:07;;;;;;;5.45;1.77;;;;;;;;;;4980740;28;20037;-74
2022/03/08 12:29:41;;;;;;;4.60;1.70;;;;;;;;;;5008041;28;20042;-74
2022/03/08 12:32:06;;;;;;;3.72;1.75;;;;;;;;;;5004702;28;20530;-75
2022/03/08 12:34:39;;;;;;;4.70;1.90;;;;;;;;;;5008525;28;20046;-76
2022/03/08 12:37:18;;;;;;;5.53;2.28;;;;;;;;;;4999187;28;20478;-78
2022/03/08 12:39:45;;;;;;;5.88;2.15;;;;;;;;;;4981261;28;20863;-83
2022/03/08 12:42:33;;;;;;;4.15;2.10;;;;;;;;;;4989586;28;20048;-81
2022/03/08 12:44:59;;;;;;;3.80;1.77;;;;;;;;;;4988112;28;20038;-74
2022/03/08 12:47:47;;;;;;;5.38;2.38;;;;;;;;;;4992355;28;20098;-83
2022/03/08 12:50:14;;;;;;;4.80;2.25;;;;;;;;;;5006008;28;20551;-79
2022/03/08 12:52:45;;;;;;;5.22;2.10;;;;;;;;;;4977523;28;20048;-81
2022/03/08 12:55:22;;;;;;;4.70;1.80;;;;;;;;;;5006339;28;20120;-76
2022/03/08 12:57:51;;;;;;;4.78;2.33;;;;;;;;;;5005878;28;20037;-79
2022/03/08 13:00:32;;;;;;;5.38;2.38;;;;;;;;;;5007204;28;20047;-77
2022/03/08 13:02:58;;;;;;;6.00;2.08;;;;;;;;;;5002643;28;20124;-83
2022/03/08 13:05:26;;;;;;;5.35;2.10;;;;;;;;;;5006436;28;20050;-77
2022/03/08 13:07:52;;;;;;;7.90;3.50;;;;;;;;;;5007855;28;20041;-75
2022/03/08 13:10:18;;;;;;;4.65;2.30;;;;;;;;;;5003960;28;20038;-74
2022/03/08 13:12:58;;;;;;;4.00;1.90;;;;;;;;;;4989384;28;20052;-75
2022/03/08 13:15:25;;;;;;;5.20;2.30;;;;;;;;;;5003757;28;20048;-76
2022/03/08 13:17:53;;;;;;;6.53;2.40;;;;;;;;;;5008555;28;20570;-74
2022/03/08 13:20:45;;;;;;;4.85;2.20;;;;;;;;;;5003006;28;20049;-74
2022/03/08 13:23:11;;;;;;;5.25;2.10;;;;;;;;;;4999186;28;20044;-75
2022/03/08 13:25:39;;;;;;;4.22;2.10;;;;;;;;;;5004819;28;20061;-75
2022/03/08 13:28:11;;;;;;;5.80;2.38;;;;;;;;;;5006810;28;20041;-73
2022/03/08 13:30:39;;;;;;;5.20;2.35;;;;;;;;;;5001933;28;20042;-74
2022/03/08 13:33:10;;;;;;;;;;;;;;;;;;5005945;28;20542;-75
2022/03/08 13:35:36;;;;;;;4.72;2.28;;;;;;;;;;5005759;28;20638;-75
2022/03/08 13:38:02;;;;;;;4.05;2.20;;;;;;;;;;5004694;28;20124;-74
2022/03/08 13:40:31;;;;;;;4.40;1.90;;;;;;;;;;5005340;28;20477;-74
2022/03/08 13:42:57;;;;;;;4.32;2.15;;;;;;;;;;4987468;28;20041;-75
2022/03/08 13:45:22;;;;;;;4.43;2.03;;;;;;;;;;5006197;28;20048;-74
2022/03/08 13:47:52;;;;;;;4.28;2.10;;;;;;;;;;4997796;28;20404;-74
2022/03/08 13:50:19;;;;;;;4.03;2.00;;;;;;;;;;4989677;28;20058;-75
2022/03/08 13:52:55;;;;;;;5.10;2.53;;;;;;;;;;5003088;28;20420;-74
2022/03/08 13:55:29;;;;;;;4.93;2.25;;;;;;;;;;5005663;28;20413;-75
2022/03/08 13:57:56;;;;;;;3.55;1.90;;;;;;;;;;5005672;28;20045;-75
2022/03/08 14:00:26;;;;;;;5.45;2.20;;;;;;;;;;4990953;28;20947;-74
2022/03/08 14:02:56;;;;;;;5.35;2.03;;;;;;;;;;5002161;28;20088;-74
2022/03/08 14:05:21;;;;;;;5.38;2.20;;;;;;;;;;5003175;28;20090;-74
2022/03/08 14:08:01;;;;;;;6.68;2.53;;;;;;;;;;5007473;28;20033;-74
2022/03/08 14:10:27;;;;;;;4.47;2.03;;;;;;;;;;4999178;28;20400;-79
2022/03/08 14:12:53;;;;;;;5.72;2.38;;;;;;;;;;4994461;28;20639;-80
2022/03/08 14:15:20;;;;;;;5.75;2.20;;;;;;;;;;4985715;28;20042;-80
2022/03/08 14:17:47;;;;;;;4.70;2.40;;;;;;;;;;4987948;28;20037;-80
2022/03/08 14:20:22;;;;;;;5.27;1.90;;;;;;;;;;4987748;28;20112;-80
2022/03/08 14:23:08;;;;;;;4.15;2.08;;;;;;;;;;4987336;28;20034;-80
2022/03/08 14:26:00;;;;;;;7.35;2.70;;;;;;;;;;4988963;28;20402;-79
2022/03/08 14:28:40;;;;;;;6.00;2.05;;;;;;;;;;5006204;28;20506;-80
2022/03/08 14:31:19;;;;;;;4.65;2.17;;;;;;;;;;4989337;28;20712;-80
2022/03/08 14:33:53;;;;;;;5.68;2.28;;;;;;;;;;4991557;28;20041;-80
2022/03/08 14:36:36;;;;;;;5.20;2.33;;;;;;;;;;5008674;28;20045;-81
2022/03/08 14:39:26;;;;;;;5.22;2.10;;;;;;;;;;4988646;28;20034;-80
2022/03/08 14:41:52;;;;;;;5.03;2.17;;;;;;;;;;5003072;28;20116;-81